Terminal Aerodrome Forecast
Issued by NWS Dallas/Fort Worth, TX

Home | Current Version | Previous Version | Text Only | Print | Product List | Glossary On
Versions: 1 2 3 4 5 6 7 8 9 10 11 12 13 14 15 16 17 18 19 20 21 22 23 24
621
FTUS44 KFWD 130907 AAA
TAFDFW
TAF AMD
KDFW 130907Z 1309/1412 05008KT P6SM SKC
     FM131800 12010KT P6SM SCT040
     FM132100 14013KT P6SM BKN040
     FM140300 16015KT P6SM BKN020=

USA.gov is the U.S. government's official web portal to all federal, state and local government web resources and services.